createdAt,value
2023-01-13T00:00:33.922Z,99501.63
2023-01-13T00:03:03.579Z,99489.72
2023-01-13T00:05:30.513Z,99487.69
2023-01-13T00:07:57.769Z,99485.44
2023-01-13T00:10:24.890Z,99469.13
2023-01-13T00:12:53.724Z,99482.28
2023-01-13T00:15:20.701Z,99483.53
2023-01-13T00:17:48.864Z,99479.28
2023-01-13T00:20:16.225Z,99471.66
2023-01-13T00:22:43.158Z,99465.78
2023-01-13T00:25:10.335Z,99468.50
2023-01-13T00:27:37.314Z,99462.44
2023-01-13T00:30:05.777Z,99452.88
2023-01-13T00:32:32.655Z,99458.97
2023-01-13T00:34:59.957Z,99455.88
2023-01-13T00:37:26.896Z,99452.69
2023-01-13T00:39:54.085Z,99441.91
2023-01-13T00:42:39.775Z,99449.53
2023-01-13T00:45:06.888Z,99441.44
2023-01-13T00:47:33.802Z,99448.06
2023-01-13T00:50:01.079Z,99444.47
2023-01-13T00:52:27.951Z,99445.25
2023-01-13T00:54:54.914Z,99453.66
2023-01-13T00:57:21.951Z,99450.97
2023-01-13T00:59:49.703Z,99449.06
2023-01-13T01:02:16.892Z,99441.44
2023-01-13T01:04:43.926Z,99448.44
2023-01-13T01:07:10.876Z,99448.75
2023-01-13T01:09:39.770Z,99468.09
2023-01-13T01:12:07.049Z,99470.78
2023-01-13T01:14:36.764Z,99469.97
2023-01-13T01:17:04.188Z,99479.97
2023-01-13T01:19:31.369Z,99477.13
2023-01-13T01:21:58.361Z,99473.22
2023-01-13T01:24:25.350Z,99469.59
2023-01-13T01:26:52.376Z,99473.28
2023-01-13T01:29:19.587Z,99472.03
2023-01-13T01:31:46.762Z,99493.00
2023-01-13T01:34:14.124Z,99498.66
2023-01-13T01:36:41.174Z,99511.00
2023-01-13T01:39:08.233Z,99495.81
2023-01-13T01:41:36.023Z,99495.75
2023-01-13T01:44:08.696Z,99518.94
2023-01-13T01:46:42.968Z,99516.00
2023-01-13T01:49:18.282Z,99515.28
2023-01-13T01:51:50.278Z,99524.78
2023-01-13T01:54:20.388Z,99538.91
2023-01-13T01:56:47.475Z,99530.81
2023-01-13T01:59:15.165Z,99522.31
2023-01-13T02:01:42.971Z,99508.50
2023-01-13T02:04:12.927Z,99496.16
2023-01-13T02:06:40.337Z,99498.25
2023-01-13T02:09:07.240Z,99498.06
2023-01-13T02:11:53.776Z,99505.56
2023-01-13T02:14:22.405Z,99504.63
2023-01-13T02:17:08.368Z,99515.38
2023-01-13T02:19:57.364Z,99517.94
2023-01-13T02:22:33.606Z,99507.50
2023-01-13T02:25:19.569Z,99506.88
2023-01-13T02:27:52.556Z,99509.72
2023-01-13T02:30:41.595Z,99508.81
2023-01-13T02:33:23.992Z,99513.53
2023-01-13T02:35:52.710Z,99525.59
2023-01-13T02:38:22.973Z,99524.63
2023-01-13T02:40:49.907Z,99527.97
2023-01-13T02:43:37.395Z,99525.59
2023-01-13T02:46:23.059Z,99521.19
2023-01-13T02:48:50.965Z,99516.91
2023-01-13T02:51:19.848Z,99522.28
2023-01-13T02:53:56.845Z,99526.56
2023-01-13T02:56:24.521Z,99525.63
2023-01-13T02:58:52.502Z,99541.25
2023-01-13T03:01:19.805Z,99536.81
2023-01-13T03:03:47.057Z,99546.00
2023-01-13T03:06:14.377Z,99552.81
2023-01-13T03:08:48.752Z,99555.50
2023-01-13T03:11:17.605Z,99555.03
2023-01-13T03:13:56.852Z,99561.50
2023-01-13T03:16:26.509Z,99571.75
2023-01-13T03:18:53.401Z,99583.31
2023-01-13T03:21:23.030Z,99588.19
2023-01-13T03:23:49.870Z,99594.22
2023-01-13T03:26:25.567Z,99595.31
2023-01-13T03:28:54.678Z,99605.28
2023-01-13T03:31:29.854Z,99611.59
2023-01-13T03:34:07.518Z,99619.50
2023-01-13T03:36:36.353Z,99630.06
2023-01-13T03:39:12.281Z,99632.09
2023-01-13T03:41:43.145Z,99643.97
2023-01-13T03:44:24.574Z,99645.06
2023-01-13T03:46:51.335Z,99658.00
2023-01-13T03:49:20.448Z,99657.50
2023-01-13T03:51:49.236Z,99648.97
2023-01-13T03:54:17.529Z,99655.59
2023-01-13T03:57:10.766Z,99669.81
2023-01-13T03:59:40.336Z,99672.50
2023-01-13T04:02:10.796Z,99674.09
2023-01-13T04:04:37.671Z,99689.13
2023-01-13T04:07:15.285Z,99694.94
2023-01-13T04:09:42.170Z,99699.66
2023-01-13T04:12:12.940Z,99690.81
2023-01-13T04:14:40.647Z,99695.09
2023-01-13T04:17:07.606Z,99698.88
2023-01-13T04:19:34.602Z,99696.78
2023-01-13T04:22:01.554Z,99696.00
2023-01-13T04:24:28.377Z,99694.25
2023-01-13T04:26:56.813Z,99687.31
2023-01-13T04:29:23.636Z,99693.44
2023-01-13T04:31:50.715Z,99690.09
2023-01-13T04:34:17.563Z,99690.09
2023-01-13T04:36:45.214Z,99693.09
2023-01-13T04:39:12.198Z,99689.16
2023-01-13T04:41:57.539Z,99701.59
2023-01-13T04:44:24.469Z,99707.56
2023-01-13T04:46:51.287Z,99704.91
2023-01-13T04:49:18.257Z,99721.63
2023-01-13T04:51:45.418Z,99724.91
2023-01-13T04:54:12.547Z,99722.22
2023-01-13T04:56:39.470Z,99729.78
2023-01-13T04:59:06.287Z,99741.00
2023-01-13T05:01:36.122Z,99744.63
2023-01-13T05:04:03.222Z,99738.75
2023-01-13T05:06:30.620Z,99734.19
2023-01-13T05:08:57.785Z,99740.69
2023-01-13T05:11:43.462Z,99736.41
2023-01-13T05:14:28.796Z,99736.41
2023-01-13T05:17:03.256Z,99746.50
2023-01-13T05:19:35.459Z,99753.31
2023-01-13T05:22:21.683Z,99751.88
2023-01-13T05:25:08.201Z,99756.94
2023-01-13T05:27:35.099Z,99755.81
2023-01-13T05:30:02.235Z,99754.13
2023-01-13T05:32:29.280Z,99759.00
2023-01-13T05:34:56.203Z,99761.19
2023-01-13T05:37:23.934Z,99756.16
2023-01-13T05:40:09.189Z,99755.66
2023-01-13T05:42:54.809Z,99745.34
2023-01-13T05:45:21.736Z,99753.91
2023-01-13T05:47:48.739Z,99747.22
2023-01-13T05:50:15.837Z,99749.91
2023-01-13T05:52:43.505Z,99746.72
2023-01-13T05:55:10.885Z,99756.88
2023-01-13T05:57:37.736Z,99760.34
2023-01-13T06:00:05.166Z,99751.63
2023-01-13T06:02:32.128Z,99758.72
2023-01-13T06:04:59.031Z,99757.63
2023-01-13T06:07:31.709Z,99750.38
2023-01-13T06:09:58.603Z,99752.56
2023-01-13T06:12:25.562Z,99756.31
2023-01-13T06:14:52.614Z,99754.16
2023-01-13T06:17:19.480Z,99753.34
2023-01-13T06:19:46.628Z,99756.53
2023-01-13T06:22:23.347Z,99758.91
2023-01-13T06:24:50.746Z,99760.47
2023-01-13T06:27:18.027Z,99769.00
2023-01-13T06:29:44.923Z,99768.69
2023-01-13T06:32:23.699Z,99773.28
2023-01-13T06:34:54.234Z,99767.00
2023-01-13T06:37:23.641Z,99775.56
2023-01-13T06:39:50.531Z,99777.50
2023-01-13T06:42:36.056Z,99779.09
2023-01-13T06:45:03.530Z,99775.31
2023-01-13T06:47:30.332Z,99788.72
2023-01-13T06:49:57.338Z,99782.28
2023-01-13T06:52:24.439Z,99790.63
2023-01-13T06:54:51.214Z,99784.88
2023-01-13T06:57:18.124Z,99784.09
2023-01-13T06:59:44.945Z,99794.16
2023-01-13T07:02:11.892Z,99790.53
2023-01-13T07:04:38.840Z,99803.16
2023-01-13T07:07:05.793Z,99794.81
2023-01-13T07:09:32.717Z,99800.81
2023-01-13T07:11:59.682Z,99800.59
2023-01-13T07:14:45.295Z,99813.34
2023-01-13T07:17:12.207Z,99804.69
2023-01-13T07:19:39.076Z,99819.97
2023-01-13T07:22:06.052Z,99809.25
2023-01-13T07:24:33.110Z,99807.34
2023-01-13T07:27:00.232Z,99811.13
2023-01-13T07:29:27.067Z,99823.47
2023-01-13T07:31:54.094Z,99817.81
2023-01-13T07:34:22.093Z,99821.28
2023-01-13T07:36:48.942Z,99820.78
2023-01-13T07:39:15.876Z,99826.16
2023-01-13T07:42:01.397Z,99828.84
2023-01-13T07:44:28.202Z,99825.34
2023-01-13T07:46:55.111Z,99821.88
2023-01-13T07:49:22.098Z,99826.78
2023-01-13T07:51:48.943Z,99829.44
2023-01-13T07:54:16.179Z,99832.94
2023-01-13T07:56:43.223Z,99846.34
2023-01-13T07:59:10.012Z,99845.44
2023-01-13T08:01:37.506Z,99839.56
2023-01-13T08:04:04.400Z,99832.31
2023-01-13T08:06:31.215Z,99833.09
2023-01-13T08:08:58.458Z,99843.19
2023-01-13T08:11:25.284Z,99843.34
2023-01-13T08:13:55.747Z,99842.75
2023-01-13T08:16:22.575Z,99845.56
2023-01-13T08:18:49.365Z,99838.91
2023-01-13T08:21:16.244Z,99851.38
2023-01-13T08:23:44.115Z,99855.28
2023-01-13T08:26:12.556Z,99863.19
2023-01-13T08:28:42.375Z,99863.41
2023-01-13T08:31:13.763Z,99864.06
2023-01-13T08:33:41.185Z,99869.03
2023-01-13T08:36:09.871Z,99866.22
2023-01-13T08:38:37.515Z,99865.00
2023-01-13T08:41:15.046Z,99867.88
2023-01-13T08:43:42.076Z,99881.59
2023-01-13T08:46:09.005Z,99874.03
2023-01-13T08:48:35.898Z,99867.25
2023-01-13T08:51:04.234Z,99865.88
2023-01-13T08:53:31.241Z,99865.22
2023-01-13T08:55:58.415Z,99866.03
2023-01-13T08:58:25.405Z,99873.97
2023-01-13T09:00:52.395Z,99874.19
2023-01-13T09:03:19.395Z,99877.81
2023-01-13T09:05:46.236Z,99875.63
2023-01-13T09:08:13.136Z,99886.22
2023-01-13T09:10:40.584Z,99889.41
2023-01-13T09:13:11.824Z,99890.38
2023-01-13T09:15:39.406Z,99890.75
2023-01-13T09:18:06.511Z,99902.78
2023-01-13T09:20:33.591Z,99903.13
2023-01-13T09:23:00.539Z,99910.13
2023-01-13T09:25:27.501Z,99914.63
2023-01-13T09:27:54.518Z,99914.41
2023-01-13T09:30:24.601Z,99928.88
2023-01-13T09:33:11.822Z,99927.66
2023-01-13T09:35:38.842Z,99926.69
2023-01-13T09:38:08.561Z,99926.06
2023-01-13T09:40:37.767Z,99930.72
2023-01-13T09:43:38.572Z,99929.28
2023-01-13T09:46:30.741Z,99928.03
2023-01-13T09:48:58.481Z,99931.97
2023-01-13T09:51:30.186Z,99926.75
2023-01-13T09:53:59.237Z,99930.06
2023-01-13T09:56:26.663Z,99923.28
2023-01-13T09:58:53.575Z,99919.78
2023-01-13T10:01:20.862Z,99927.84
2023-01-13T10:03:49.499Z,99922.59
2023-01-13T10:06:34.989Z,99913.22
2023-01-13T10:09:02.135Z,99904.44
2023-01-13T10:11:53.361Z,99907.28
2023-01-13T10:14:27.316Z,99917.56
2023-01-13T10:17:26.394Z,99915.84
2023-01-13T10:20:02.915Z,99911.59
2023-01-13T10:22:49.982Z,99907.47
2023-01-13T10:25:36.025Z,99905.72
2023-01-13T10:28:09.134Z,99906.81
2023-01-13T10:30:40.187Z,99904.78
2023-01-13T10:33:14.445Z,99917.97
2023-01-13T10:35:47.353Z,99906.81
2023-01-13T10:38:18.813Z,99905.25
2023-01-13T10:40:56.698Z,99904.13
2023-01-13T10:43:23.687Z,99904.16
2023-01-13T10:45:52.803Z,99897.50
2023-01-13T10:48:19.947Z,99903.81
2023-01-13T10:50:48.725Z,99905.56
2023-01-13T10:53:22.623Z,99907.47
2023-01-13T10:56:00.759Z,99906.03
2023-01-13T10:58:28.355Z,99906.94
2023-01-13T11:00:59.831Z,99913.91
2023-01-13T11:03:34.441Z,99923.09
2023-01-13T11:06:01.583Z,99917.25
2023-01-13T11:08:29.926Z,99922.13
2023-01-13T11:10:58.823Z,99919.59
2023-01-13T11:13:29.109Z,99924.03
2023-01-13T11:16:13.323Z,99922.81
2023-01-13T11:18:40.476Z,99912.66
2023-01-13T11:21:13.118Z,99913.28
2023-01-13T11:23:42.365Z,99904.25
2023-01-13T11:26:26.368Z,99906.00
2023-01-13T11:29:17.909Z,99902.84
2023-01-13T11:31:49.439Z,99919.91
2023-01-13T11:34:31.133Z,99919.09
2023-01-13T11:36:59.082Z,99906.94
2023-01-13T11:39:45.538Z,99904.53
2023-01-13T11:42:21.498Z,99894.41
2023-01-13T11:45:03.573Z,99886.31
2023-01-13T11:47:31.515Z,99893.47
2023-01-13T11:49:58.553Z,99893.34
2023-01-13T11:52:44.981Z,99893.50
2023-01-13T11:55:22.625Z,99883.22
2023-01-13T11:57:52.697Z,99885.25
2023-01-13T12:00:31.271Z,99887.34
2023-01-13T12:02:59.644Z,99881.97
2023-01-13T12:05:37.080Z,99877.56
2023-01-13T12:08:11.056Z,99880.66
2023-01-13T12:10:37.956Z,99873.28
2023-01-13T12:13:04.870Z,99875.97
2023-01-13T12:15:36.374Z,99873.88
2023-01-13T12:18:03.321Z,99893.69
2023-01-13T12:20:58.500Z,99898.09
2023-01-13T12:23:25.445Z,99902.84
2023-01-13T12:25:54.745Z,99917.56
2023-01-13T12:28:49.094Z,99919.78
2023-01-13T12:31:18.917Z,99935.44
2023-01-13T12:33:52.748Z,99939.09
2023-01-13T12:36:28.717Z,99942.41
2023-01-13T12:39:04.047Z,99937.31
2023-01-13T12:41:32.321Z,99955.81
2023-01-13T12:44:17.635Z,99951.78
2023-01-13T12:46:46.830Z,99949.34
2023-01-13T12:49:27.255Z,99944.06
2023-01-13T12:51:57.244Z,99931.41
2023-01-13T12:54:30.046Z,99930.91
2023-01-13T12:56:57.583Z,99925.06
2023-01-13T12:59:24.333Z,99923.63
2023-01-13T13:02:11.683Z,99917.31
2023-01-13T13:04:41.747Z,99926.34
2023-01-13T13:07:10.304Z,99907.44
2023-01-13T13:09:42.931Z,99908.53
2023-01-13T13:13:07.521Z,99915.72
2023-01-13T13:15:35.544Z,99921.56
2023-01-13T13:18:06.470Z,99920.75
2023-01-13T13:20:53.838Z,99911.25
2023-01-13T13:23:36.139Z,99919.13
2023-01-13T13:26:15.060Z,99915.22
2023-01-13T13:28:57.391Z,99917.59
2023-01-13T13:31:30.592Z,99926.56
2023-01-13T13:34:21.445Z,99913.31
2023-01-13T13:37:03.694Z,99925.66
2023-01-13T13:39:50.519Z,99933.25
2023-01-13T13:42:43.536Z,99928.03
2023-01-13T13:45:34.134Z,99928.03
2023-01-13T13:48:18.412Z,99936.44
2023-01-13T13:50:57.236Z,99935.63
2023-01-13T13:53:27.057Z,99947.19
2023-01-13T13:55:55.706Z,99937.53
2023-01-13T13:58:23.952Z,99948.41
2023-01-13T14:00:52.355Z,99954.75
2023-01-13T14:03:24.961Z,99949.03
2023-01-13T14:06:02.641Z,99951.72
2023-01-13T14:08:39.631Z,99952.50
2023-01-13T14:11:25.087Z,99951.84
2023-01-13T14:14:13.261Z,99949.81
2023-01-13T14:16:40.494Z,99952.03
2023-01-13T14:19:18.443Z,99956.94
2023-01-13T14:21:47.679Z,99967.38
2023-01-13T14:24:16.411Z,99960.59
2023-01-13T14:26:43.291Z,99966.75
2023-01-13T14:29:14.159Z,99979.41
2023-01-13T14:31:41.296Z,99973.22
2023-01-13T14:34:30.988Z,99975.59
2023-01-13T14:36:57.178Z,99977.34
2023-01-13T14:39:25.041Z,99987.47
2023-01-13T14:41:53.407Z,99975.75
2023-01-13T14:44:27.861Z,99983.22
2023-01-13T14:46:56.553Z,99990.28
2023-01-13T14:49:37.600Z,99982.53
2023-01-13T14:52:07.039Z,99985.50
2023-01-13T14:54:44.096Z,99988.09
2023-01-13T14:57:13.998Z,99982.72
2023-01-13T14:59:48.556Z,99990.44
2023-01-13T15:02:42.521Z,99994.28
2023-01-13T15:05:27.860Z,99982.56
2023-01-13T15:07:57.707Z,100006.63
2023-01-13T15:10:38.164Z,99995.41
2023-01-13T15:13:06.511Z,100007.97
2023-01-13T15:15:33.581Z,99998.28
2023-01-13T15:18:01.842Z,99997.00
2023-01-13T15:20:29.016Z,100004.78
2023-01-13T15:22:57.925Z,100012.84
2023-01-13T15:25:24.840Z,100012.34
2023-01-13T15:27:52.715Z,100019.63
2023-01-13T15:30:25.965Z,100027.19
2023-01-13T15:32:53.920Z,100031.75
2023-01-13T15:35:22.062Z,100030.97
2023-01-13T15:37:49.549Z,100035.72
2023-01-13T15:40:20.869Z,100029.53
2023-01-13T15:43:06.367Z,100025.13
2023-01-13T15:45:52.649Z,100032.22
2023-01-13T15:48:23.355Z,100039.19
2023-01-13T15:50:51.077Z,100043.28
2023-01-13T15:53:18.299Z,100036.50
2023-01-13T15:55:47.101Z,100044.88
2023-01-13T15:58:14.497Z,100038.19
2023-01-13T16:00:42.021Z,100035.03
2023-01-13T16:03:15.474Z,100033.44
2023-01-13T16:05:42.986Z,100038.53
2023-01-13T16:08:20.707Z,100039.00
2023-01-13T16:10:48.398Z,100045.16
2023-01-13T16:13:16.445Z,100038.69
2023-01-13T16:15:44.546Z,100043.56
2023-01-13T16:18:17.588Z,100055.03
2023-01-13T16:20:44.632Z,100041.09
2023-01-13T16:23:12.222Z,100054.69
2023-01-13T16:25:39.867Z,100043.94
2023-01-13T16:28:08.478Z,100057.22
2023-01-13T16:30:37.091Z,100073.06
2023-01-13T16:33:04.967Z,100062.91
2023-01-13T16:35:32.359Z,100078.06
2023-01-13T16:38:00.223Z,100081.47
2023-01-13T16:40:31.216Z,100092.03
2023-01-13T16:42:58.645Z,100089.66
2023-01-13T16:45:25.701Z,100096.72
2023-01-13T16:47:52.981Z,100107.16
2023-01-13T16:50:30.473Z,100103.69
2023-01-13T16:52:57.305Z,100105.56
2023-01-13T16:55:25.351Z,100094.34
2023-01-13T16:57:52.245Z,100107.03
2023-01-13T17:00:19.778Z,100117.34
2023-01-13T17:02:47.024Z,100110.38
2023-01-13T17:05:13.975Z,100097.72
2023-01-13T17:07:45.089Z,100120.53
2023-01-13T17:10:16.656Z,100109.44
2023-01-13T17:12:43.562Z,100114.41
2023-01-13T17:15:12.439Z,100120.69
2023-01-13T17:17:41.467Z,100129.97
2023-01-13T17:20:12.518Z,100125.84
2023-01-13T17:22:39.832Z,100128.53
2023-01-13T17:25:07.415Z,100124.78
2023-01-13T17:27:34.848Z,100136.44
2023-01-13T17:30:02.333Z,100149.88
2023-01-13T17:32:29.531Z,100149.56
2023-01-13T17:34:56.718Z,100150.16
2023-01-13T17:37:24.119Z,100143.88
2023-01-13T17:39:51.330Z,100145.16
2023-01-13T17:42:18.189Z,100140.44
2023-01-13T17:44:45.331Z,100141.94
2023-01-13T17:47:12.689Z,100120.06
2023-01-13T17:49:39.677Z,100088.22
2023-01-13T17:52:07.420Z,100112.38
2023-01-13T17:54:34.254Z,100104.53
2023-01-13T17:57:02.801Z,100101.13
2023-01-13T17:59:29.673Z,100098.75
2023-01-13T18:01:57.747Z,100113.69
2023-01-13T18:04:27.690Z,100135.53
2023-01-13T18:06:56.789Z,100132.75
2023-01-13T18:09:23.955Z,100136.00
2023-01-13T18:11:51.543Z,100146.06
2023-01-13T18:14:22.538Z,100138.06
2023-01-13T18:16:49.941Z,100152.34
2023-01-13T18:19:35.556Z,100162.88
2023-01-13T18:22:21.479Z,100144.69
2023-01-13T18:25:06.989Z,100160.84
2023-01-13T18:27:35.671Z,100157.97
2023-01-13T18:30:04.229Z,100161.44
2023-01-13T18:32:33.014Z,100167.72
2023-01-13T18:35:06.635Z,100177.38
2023-01-13T18:37:39.059Z,100186.94
2023-01-13T18:40:08.029Z,100187.94
2023-01-13T18:42:54.961Z,100197.66
2023-01-13T18:45:24.753Z,100192.31
2023-01-13T18:47:52.387Z,100202.25
2023-01-13T18:50:19.315Z,100219.72
2023-01-13T18:52:46.376Z,100213.56
2023-01-13T18:55:13.263Z,100213.78
2023-01-13T18:57:40.647Z,100219.06
2023-01-13T19:00:12.513Z,100223.56
2023-01-13T19:02:40.089Z,100233.91
2023-01-13T19:05:07.163Z,100250.22
2023-01-13T19:07:36.051Z,100241.44
2023-01-13T19:10:04.557Z,100235.09
2023-01-13T19:12:31.659Z,100242.84
2023-01-13T19:14:59.009Z,100220.06
2023-01-13T19:17:27.269Z,100208.69
2023-01-13T19:19:55.989Z,100223.16
2023-01-13T19:22:24.084Z,100217.41
2023-01-13T19:24:50.952Z,100221.72
2023-01-13T19:27:19.026Z,100213.19
2023-01-13T19:29:52.405Z,100216.94
2023-01-13T19:32:20.208Z,100216.19
2023-01-13T19:34:49.421Z,100206.56
2023-01-13T19:37:18.257Z,100199.16
2023-01-13T19:39:45.289Z,100202.66
2023-01-13T19:42:31.480Z,100193.00
2023-01-13T19:45:17.224Z,100187.41
2023-01-13T19:47:45.772Z,100187.13
2023-01-13T19:50:13.861Z,100178.81
2023-01-13T19:52:43.991Z,100166.22
2023-01-13T19:55:12.432Z,100174.25
2023-01-13T19:57:40.184Z,100180.94
2023-01-13T20:00:10.003Z,100208.53
2023-01-13T20:02:37.079Z,100199.38
2023-01-13T20:05:06.612Z,100209.31
2023-01-13T20:07:35.039Z,100204.81
2023-01-13T20:10:03.263Z,100218.00
2023-01-13T20:12:30.296Z,100232.69
2023-01-13T20:14:57.470Z,100227.31
2023-01-13T20:17:26.318Z,100231.31
2023-01-13T20:19:53.194Z,100231.84
2023-01-13T20:22:22.078Z,100242.84
2023-01-13T20:24:55.283Z,100253.56
2023-01-13T20:27:24.112Z,100253.78
2023-01-13T20:29:51.929Z,100259.66
2023-01-13T20:32:22.332Z,100281.03
2023-01-13T20:34:49.400Z,100264.34
2023-01-13T20:37:18.308Z,100286.06
2023-01-13T20:39:46.635Z,100294.63
2023-01-13T20:42:33.015Z,100296.78
2023-01-13T20:45:01.220Z,100304.34
2023-01-13T20:47:29.696Z,100312.41
2023-01-13T20:49:56.668Z,100314.06
2023-01-13T20:52:24.385Z,100326.47
2023-01-13T20:54:53.792Z,100359.19
2023-01-13T20:57:20.779Z,100350.00
2023-01-13T20:59:47.701Z,100351.59
2023-01-13T21:02:16.550Z,100365.00
2023-01-13T21:04:44.443Z,100379.44
2023-01-13T21:07:11.342Z,100382.63
2023-01-13T21:09:38.667Z,100367.09
2023-01-13T21:12:25.438Z,100373.53
2023-01-13T21:15:11.258Z,100389.88
2023-01-13T21:17:56.901Z,100397.59
2023-01-13T21:20:24.087Z,100412.06
2023-01-13T21:22:51.203Z,100407.28
2023-01-13T21:25:20.867Z,100409.66
2023-01-13T21:27:48.673Z,100422.19
2023-01-13T21:30:18.866Z,100436.63
2023-01-13T21:32:47.540Z,100435.00
2023-01-13T21:35:17.936Z,100436.34
2023-01-13T21:37:44.993Z,100451.56
2023-01-13T21:40:13.138Z,100466.81
2023-01-13T21:42:59.621Z,100463.03
2023-01-13T21:45:45.721Z,100477.78
2023-01-13T21:48:12.980Z,100477.50
2023-01-13T21:50:40.107Z,100477.50
2023-01-13T21:53:10.030Z,100470.81
2023-01-13T21:55:37.652Z,100490.72
2023-01-13T21:58:12.331Z,100485.88
2023-01-13T22:00:39.946Z,100494.19
2023-01-13T22:03:07.680Z,100503.91
2023-01-13T22:05:34.885Z,100506.88
2023-01-13T22:08:02.058Z,100513.56
2023-01-13T22:10:30.225Z,100506.38
2023-01-13T22:13:21.243Z,100513.34
2023-01-13T22:15:48.297Z,100513.44
2023-01-13T22:18:16.068Z,100511.28
2023-01-13T22:20:42.992Z,100516.09
2023-01-13T22:23:10.258Z,100508.63
2023-01-13T22:25:37.134Z,100516.09
2023-01-13T22:28:06.095Z,100512.31
2023-01-13T22:30:33.415Z,100514.72
2023-01-13T22:33:00.386Z,100521.41
2023-01-13T22:35:27.884Z,100533.16
2023-01-13T22:37:54.845Z,100524.03
2023-01-13T22:40:22.117Z,100522.69
2023-01-13T22:42:49.074Z,100523.97
2023-01-13T22:45:19.499Z,100536.31
2023-01-13T22:47:47.132Z,100544.63
2023-01-13T22:50:17.737Z,100539.53
2023-01-13T22:52:44.671Z,100540.56
2023-01-13T22:55:11.754Z,100554.22
2023-01-13T22:57:47.250Z,100549.13
2023-01-13T23:00:15.279Z,100559.28
2023-01-13T23:02:42.781Z,100564.59
2023-01-13T23:05:10.077Z,100590.34
2023-01-13T23:07:37.284Z,100573.69
2023-01-13T23:10:04.919Z,100595.97
2023-01-13T23:12:32.840Z,100580.41
2023-01-13T23:15:00.104Z,100580.66
2023-01-13T23:17:27.435Z,100582.78
2023-01-13T23:19:54.542Z,100586.56
2023-01-13T23:22:21.597Z,100583.06
2023-01-13T23:24:48.783Z,100587.34
2023-01-13T23:27:15.733Z,100589.78
2023-01-13T23:29:42.758Z,100592.69
2023-01-13T23:32:09.734Z,100591.41
2023-01-13T23:34:36.819Z,100601.56
2023-01-13T23:37:06.239Z,100596.41
2023-01-13T23:39:33.055Z,100593.72
2023-01-13T23:42:00.475Z,100580.88
2023-01-13T23:44:29.595Z,100602.34
2023-01-13T23:46:57.536Z,100609.56
2023-01-13T23:49:24.515Z,100615.19
2023-01-13T23:51:51.607Z,100613.84
2023-01-13T23:54:19.289Z,100620.25
2023-01-13T23:56:46.521Z,100627.50
2023-01-13T23:59:13.658Z,100612.50
